sensor_id;sensor_type;location;lat;lon;timestamp;temperature;humidity
15700;DHT22;7950;42.744;23.174;2023-06-10T00:01:23;17.00;99.90
15700;DHT22;7950;42.744;23.174;2023-06-10T00:03:52;17.00;99.90
15700;DHT22;7950;42.744;23.174;2023-06-10T00:06:22;17.00;99.90
15700;DHT22;7950;42.744;23.174;2023-06-10T00:08:51;17.00;99.90
15700;DHT22;7950;42.744;23.174;2023-06-10T00:11:21;17.00;99.90
15700;DHT22;7950;42.744;23.174;2023-06-10T00:13:49;17.10;99.90
15700;DHT22;7950;42.744;23.174;2023-06-10T00:16:18;17.10;99.90
15700;DHT22;7950;42.744;23.174;2023-06-10T00:18:46;17.10;99.90
15700;DHT22;7950;42.744;23.174;2023-06-10T00:21:16;17.10;99.90
15700;DHT22;7950;42.744;23.174;2023-06-10T00:23:46;17.10;99.90
15700;DHT22;7950;42.744;23.174;2023-06-10T00:26:14;17.10;99.90
15700;DHT22;7950;42.744;23.174;2023-06-10T00:28:43;17.10;99.90
15700;DHT22;7950;42.744;23.174;2023-06-10T00:31:12;17.10;99.90
15700;DHT22;7950;42.744;23.174;2023-06-10T00:33:40;17.20;99.90
15700;DHT22;7950;42.744;23.174;2023-06-10T00:36:09;17.20;99.90
15700;DHT22;7950;42.744;23.174;2023-06-10T00:38:37;17.20;99.90
15700;DHT22;7950;42.744;23.174;2023-06-10T00:41:08;17.30;99.90
15700;DHT22;7950;42.744;23.174;2023-06-10T00:43:37;17.20;99.90
15700;DHT22;7950;42.744;23.174;2023-06-10T00:46:05;17.20;99.90
15700;DHT22;7950;42.744;23.174;2023-06-10T00:48:34;17.10;99.90
15700;DHT22;7950;42.744;23.174;2023-06-10T00:51:05;17.10;99.90
15700;DHT22;7950;42.744;23.174;2023-06-10T00:53:36;17.10;99.90
15700;DHT22;7950;42.744;23.174;2023-06-10T00:56:09;17.10;99.90
15700;DHT22;7950;42.744;23.174;2023-06-10T00:58:38;17.20;99.90
15700;DHT22;7950;42.744;23.174;2023-06-10T01:01:07;17.10;99.90
15700;DHT22;7950;42.744;23.174;2023-06-10T01:03:38;17.10;99.90
15700;DHT22;7950;42.744;23.174;2023-06-10T01:06:14;17.10;99.90
15700;DHT22;7950;42.744;23.174;2023-06-10T01:08:56;17.10;99.90
15700;DHT22;7950;42.744;23.174;2023-06-10T01:11:36;17.10;99.90
15700;DHT22;7950;42.744;23.174;2023-06-10T01:14:09;17.00;99.90
15700;DHT22;7950;42.744;23.174;2023-06-10T01:16:39;17.00;99.90
15700;DHT22;7950;42.744;23.174;2023-06-10T01:19:08;17.00;99.90
15700;DHT22;7950;42.744;23.174;2023-06-10T01:21:39;17.00;99.90
15700;DHT22;7950;42.744;23.174;2023-06-10T01:24:07;17.00;99.90
15700;DHT22;7950;42.744;23.174;2023-06-10T01:26:38;17.00;99.90
15700;DHT22;7950;42.744;23.174;2023-06-10T01:29:14;17.00;99.90
15700;DHT22;7950;42.744;23.174;2023-06-10T01:31:49;17.00;99.90
15700;DHT22;7950;42.744;23.174;2023-06-10T01:34:25;17.00;99.90
15700;DHT22;7950;42.744;23.174;2023-06-10T01:36:58;17.00;99.90
15700;DHT22;7950;42.744;23.174;2023-06-10T01:39:28;17.00;99.90
15700;DHT22;7950;42.744;23.174;2023-06-10T01:41:57;17.00;99.90
15700;DHT22;7950;42.744;23.174;2023-06-10T01:44:26;17.00;99.90
15700;DHT22;7950;42.744;23.174;2023-06-10T01:46:54;17.00;99.90
15700;DHT22;7950;42.744;23.174;2023-06-10T01:49:23;17.00;99.90
15700;DHT22;7950;42.744;23.174;2023-06-10T01:51:53;16.90;99.90
15700;DHT22;7950;42.744;23.174;2023-06-10T01:54:23;17.00;99.90
15700;DHT22;7950;42.744;23.174;2023-06-10T01:56:51;17.00;99.90
15700;DHT22;7950;42.744;23.174;2023-06-10T01:59:20;17.10;99.90
15700;DHT22;7950;42.744;23.174;2023-06-10T02:01:49;17.10;99.90
15700;DHT22;7950;42.744;23.174;2023-06-10T02:04:17;17.10;99.90
15700;DHT22;7950;42.744;23.174;2023-06-10T02:06:46;17.00;99.90
15700;DHT22;7950;42.744;23.174;2023-06-10T02:09:15;17.00;99.90
15700;DHT22;7950;42.744;23.174;2023-06-10T02:11:46;17.00;99.90
15700;DHT22;7950;42.744;23.174;2023-06-10T02:14:15;17.00;99.90
15700;DHT22;7950;42.744;23.174;2023-06-10T02:16:43;16.90;99.90
15700;DHT22;7950;42.744;23.174;2023-06-10T02:19:14;16.90;99.90
15700;DHT22;7950;42.744;23.174;2023-06-10T02:21:42;16.90;99.90
15700;DHT22;7950;42.744;23.174;2023-06-10T02:24:11;16.90;99.90
15700;DHT22;7950;42.744;23.174;2023-06-10T02:26:40;16.90;99.90
15700;DHT22;7950;42.744;23.174;2023-06-10T02:29:09;16.90;99.90
15700;DHT22;7950;42.744;23.174;2023-06-10T02:31:38;16.90;99.90
15700;DHT22;7950;42.744;23.174;2023-06-10T02:34:08;16.90;99.90
15700;DHT22;7950;42.744;23.174;2023-06-10T02:36:36;16.90;99.90
15700;DHT22;7950;42.744;23.174;2023-06-10T02:39:05;16.90;99.90
15700;DHT22;7950;42.744;23.174;2023-06-10T02:41:34;16.90;99.90
15700;DHT22;7950;42.744;23.174;2023-06-10T02:44:02;16.90;99.90
15700;DHT22;7950;42.744;23.174;2023-06-10T02:46:32;16.90;99.90
15700;DHT22;7950;42.744;23.174;2023-06-10T02:49:01;16.90;99.90
15700;DHT22;7950;42.744;23.174;2023-06-10T02:51:29;16.90;99.90
15700;DHT22;7950;42.744;23.174;2023-06-10T02:53:58;16.90;99.90
15700;DHT22;7950;42.744;23.174;2023-06-10T02:56:27;16.90;99.90
15700;DHT22;7950;42.744;23.174;2023-06-10T02:58:55;16.90;99.90
15700;DHT22;7950;42.744;23.174;2023-06-10T03:01:24;16.90;99.90
15700;DHT22;7950;42.744;23.174;2023-06-10T03:03:54;16.90;99.90
15700;DHT22;7950;42.744;23.174;2023-06-10T03:06:23;16.90;99.90
15700;DHT22;7950;42.744;23.174;2023-06-10T03:08:53;16.90;99.90
15700;DHT22;7950;42.744;23.174;2023-06-10T03:11:21;16.90;99.90
15700;DHT22;7950;42.744;23.174;2023-06-10T03:13:51;16.90;99.90
15700;DHT22;7950;42.744;23.174;2023-06-10T03:16:20;16.90;99.90
15700;DHT22;7950;42.744;23.174;2023-06-10T03:18:49;16.90;99.90
15700;DHT22;7950;42.744;23.174;2023-06-10T03:21:19;16.90;99.90
15700;DHT22;7950;42.744;23.174;2023-06-10T03:23:47;16.90;99.90
15700;DHT22;7950;42.744;23.174;2023-06-10T03:26:16;17.00;99.90
15700;DHT22;7950;42.744;23.174;2023-06-10T03:28:48;17.00;99.90
15700;DHT22;7950;42.744;23.174;2023-06-10T03:31:17;17.00;99.90
15700;DHT22;7950;42.744;23.174;2023-06-10T03:33:45;17.00;99.90
15700;DHT22;7950;42.744;23.174;2023-06-10T03:36:14;17.00;99.90
15700;DHT22;7950;42.744;23.174;2023-06-10T03:38:43;17.00;99.90
15700;DHT22;7950;42.744;23.174;2023-06-10T03:41:12;17.00;99.90
15700;DHT22;7950;42.744;23.174;2023-06-10T03:43:40;17.00;99.90
15700;DHT22;7950;42.744;23.174;2023-06-10T03:46:11;17.00;99.90
15700;DHT22;7950;42.744;23.174;2023-06-10T03:48:39;17.00;99.90
15700;DHT22;7950;42.744;23.174;2023-06-10T03:51:08;17.00;99.90
15700;DHT22;7950;42.744;23.174;2023-06-10T03:53:36;17.00;99.90
15700;DHT22;7950;42.744;23.174;2023-06-10T03:56:06;16.90;99.90
15700;DHT22;7950;42.744;23.174;2023-06-10T03:58:35;16.90;99.90
15700;DHT22;7950;42.744;23.174;2023-06-10T04:01:03;17.00;99.90
15700;DHT22;7950;42.744;23.174;2023-06-10T04:03:32;17.00;99.90
15700;DHT22;7950;42.744;23.174;2023-06-10T04:06:01;17.00;99.90
15700;DHT22;7950;42.744;23.174;2023-06-10T04:08:29;17.00;99.90
15700;DHT22;7950;42.744;23.174;2023-06-10T04:11:00;17.00;99.90
15700;DHT22;7950;42.744;23.174;2023-06-10T04:13:30;17.00;99.90
15700;DHT22;7950;42.744;23.174;2023-06-10T04:15:58;16.90;99.90
15700;DHT22;7950;42.744;23.174;2023-06-10T04:18:27;16.90;99.90
15700;DHT22;7950;42.744;23.174;2023-06-10T04:20:56;17.00;99.90
15700;DHT22;7950;42.744;23.174;2023-06-10T04:23:24;17.00;99.90
15700;DHT22;7950;42.744;23.174;2023-06-10T04:25:53;17.00;99.90
15700;DHT22;7950;42.744;23.174;2023-06-10T04:28:21;17.10;99.90
15700;DHT22;7950;42.744;23.174;2023-06-10T04:30:51;17.10;99.90
15700;DHT22;7950;42.744;23.174;2023-06-10T04:33:20;17.20;99.90
15700;DHT22;7950;42.744;23.174;2023-06-10T04:35:49;17.20;99.90
15700;DHT22;7950;42.744;23.174;2023-06-10T04:38:18;17.30;99.90
15700;DHT22;7950;42.744;23.174;2023-06-10T04:40:47;17.30;99.90
15700;DHT22;7950;42.744;23.174;2023-06-10T04:43:16;17.40;99.90
15700;DHT22;7950;42.744;23.174;2023-06-10T04:45:44;17.40;99.90
15700;DHT22;7950;42.744;23.174;2023-06-10T04:48:15;17.40;99.90
15700;DHT22;7950;42.744;23.174;2023-06-10T04:50:44;17.50;99.90
15700;DHT22;7950;42.744;23.174;2023-06-10T04:53:12;17.50;99.90
15700;DHT22;7950;42.744;23.174;2023-06-10T04:55:42;17.60;99.90
15700;DHT22;7950;42.744;23.174;2023-06-10T04:58:10;17.60;99.90
15700;DHT22;7950;42.744;23.174;2023-06-10T05:00:39;17.60;99.90
15700;DHT22;7950;42.744;23.174;2023-06-10T05:03:07;17.60;99.90
15700;DHT22;7950;42.744;23.174;2023-06-10T05:05:37;17.70;99.90
15700;DHT22;7950;42.744;23.174;2023-06-10T05:08:06;17.80;99.90
15700;DHT22;7950;42.744;23.174;2023-06-10T05:10:35;17.70;99.90
15700;DHT22;7950;42.744;23.174;2023-06-10T05:13:03;17.80;99.90
15700;DHT22;7950;42.744;23.174;2023-06-10T05:15:32;17.80;99.90
15700;DHT22;7950;42.744;23.174;2023-06-10T05:18:00;17.80;99.90
15700;DHT22;7950;42.744;23.174;2023-06-10T05:20:30;17.90;99.90
15700;DHT22;7950;42.744;23.174;2023-06-10T05:23:00;18.00;99.90
15700;DHT22;7950;42.744;23.174;2023-06-10T05:25:30;18.10;99.90
15700;DHT22;7950;42.744;23.174;2023-06-10T05:27:59;18.10;99.90
15700;DHT22;7950;42.744;23.174;2023-06-10T05:30:28;18.20;99.90
15700;DHT22;7950;42.744;23.174;2023-06-10T05:32:56;18.20;99.90
15700;DHT22;7950;42.744;23.174;2023-06-10T05:35:25;18.20;99.90
15700;DHT22;7950;42.744;23.174;2023-06-10T05:37:53;18.30;99.90
15700;DHT22;7950;42.744;23.174;2023-06-10T05:40:23;18.30;99.90
15700;DHT22;7950;42.744;23.174;2023-06-10T05:42:52;18.30;99.90
15700;DHT22;7950;42.744;23.174;2023-06-10T05:45:20;18.40;99.90
15700;DHT22;7950;42.744;23.174;2023-06-10T05:47:48;18.40;99.90
15700;DHT22;7950;42.744;23.174;2023-06-10T05:50:17;18.50;99.90
15700;DHT22;7950;42.744;23.174;2023-06-10T05:52:46;18.50;99.90
15700;DHT22;7950;42.744;23.174;2023-06-10T05:55:15;18.60;99.90
15700;DHT22;7950;42.744;23.174;2023-06-10T05:57:45;18.60;99.90
15700;DHT22;7950;42.744;23.174;2023-06-10T06:00:14;18.70;99.90
15700;DHT22;7950;42.744;23.174;2023-06-10T06:02:43;18.70;99.90
15700;DHT22;7950;42.744;23.174;2023-06-10T06:05:12;18.80;99.90
15700;DHT22;7950;42.744;23.174;2023-06-10T06:07:41;18.80;99.90
15700;DHT22;7950;42.744;23.174;2023-06-10T06:10:09;18.80;99.90
15700;DHT22;7950;42.744;23.174;2023-06-10T06:12:38;18.90;99.90
15700;DHT22;7950;42.744;23.174;2023-06-10T06:15:09;18.90;99.90
15700;DHT22;7950;42.744;23.174;2023-06-10T06:17:39;19.00;99.90
15700;DHT22;7950;42.744;23.174;2023-06-10T06:20:08;19.10;99.90
15700;DHT22;7950;42.744;23.174;2023-06-10T06:22:37;19.20;99.90
15700;DHT22;7950;42.744;23.174;2023-06-10T06:25:06;19.20;99.90
15700;DHT22;7950;42.744;23.174;2023-06-10T06:27:35;19.30;99.90
15700;DHT22;7950;42.744;23.174;2023-06-10T06:30:05;19.30;99.90
15700;DHT22;7950;42.744;23.174;2023-06-10T06:32:35;19.40;99.90
15700;DHT22;7950;42.744;23.174;2023-06-10T06:35:04;19.50;99.90
15700;DHT22;7950;42.744;23.174;2023-06-10T06:37:36;19.50;99.90
15700;DHT22;7950;42.744;23.174;2023-06-10T06:40:06;19.60;99.90
15700;DHT22;7950;42.744;23.174;2023-06-10T06:42:35;19.60;99.90
15700;DHT22;7950;42.744;23.174;2023-06-10T06:45:04;19.70;99.90
15700;DHT22;7950;42.744;23.174;2023-06-10T06:47:35;19.70;99.90
15700;DHT22;7950;42.744;23.174;2023-06-10T06:50:04;19.80;99.90
15700;DHT22;7950;42.744;23.174;2023-06-10T06:52:33;19.90;99.90
15700;DHT22;7950;42.744;23.174;2023-06-10T06:55:02;20.00;99.90
15700;DHT22;7950;42.744;23.174;2023-06-10T06:57:32;20.10;99.90
15700;DHT22;7950;42.744;23.174;2023-06-10T07:00:00;20.30;99.90
15700;DHT22;7950;42.744;23.174;2023-06-10T07:02:29;20.50;99.90
15700;DHT22;7950;42.744;23.174;2023-06-10T07:05:00;20.70;99.90
15700;DHT22;7950;42.744;23.174;2023-06-10T07:07:29;21.00;99.90
15700;DHT22;7950;42.744;23.174;2023-06-10T07:09:57;21.40;99.90
15700;DHT22;7950;42.744;23.174;2023-06-10T07:12:26;21.60;99.90
15700;DHT22;7950;42.744;23.174;2023-06-10T07:14:54;21.90;99.90
15700;DHT22;7950;42.744;23.174;2023-06-10T07:17:23;22.00;99.90
15700;DHT22;7950;42.744;23.174;2023-06-10T07:19:51;22.00;99.90
15700;DHT22;7950;42.744;23.174;2023-06-10T07:22:21;21.90;99.90
15700;DHT22;7950;42.744;23.174;2023-06-10T07:24:50;21.90;99.90
15700;DHT22;7950;42.744;23.174;2023-06-10T07:27:18;21.80;99.90
15700;DHT22;7950;42.744;23.174;2023-06-10T07:29:47;21.90;99.90
15700;DHT22;7950;42.744;23.174;2023-06-10T07:32:15;21.90;99.90
15700;DHT22;7950;42.744;23.174;2023-06-10T07:34:45;22.00;99.90
15700;DHT22;7950;42.744;23.174;2023-06-10T07:37:13;22.10;99.90
15700;DHT22;7950;42.744;23.174;2023-06-10T07:39:43;22.20;99.90
15700;DHT22;7950;42.744;23.174;2023-06-10T07:42:12;22.30;99.90
15700;DHT22;7950;42.744;23.174;2023-06-10T07:44:40;22.30;99.90
15700;DHT22;7950;42.744;23.174;2023-06-10T07:47:09;22.30;99.90
15700;DHT22;7950;42.744;23.174;2023-06-10T07:49:38;22.30;99.90
15700;DHT22;7950;42.744;23.174;2023-06-10T07:52:07;22.30;99.90
15700;DHT22;7950;42.744;23.174;2023-06-10T07:54:36;22.30;99.90
15700;DHT22;7950;42.744;23.174;2023-06-10T07:57:06;22.30;99.90
15700;DHT22;7950;42.744;23.174;2023-06-10T07:59:35;22.30;99.90
15700;DHT22;7950;42.744;23.174;2023-06-10T08:02:04;22.60;99.90
15700;DHT22;7950;42.744;23.174;2023-06-10T08:04:33;22.90;99.90
15700;DHT22;7950;42.744;23.174;2023-06-10T08:07:03;23.20;99.90
15700;DHT22;7950;42.744;23.174;2023-06-10T08:09:32;23.40;99.90
15700;DHT22;7950;42.744;23.174;2023-06-10T08:12:00;23.50;99.90
15700;DHT22;7950;42.744;23.174;2023-06-10T08:14:30;23.70;99.90
15700;DHT22;7950;42.744;23.174;2023-06-10T08:16:59;23.70;99.90
15700;DHT22;7950;42.744;23.174;2023-06-10T08:19:28;23.80;99.90
15700;DHT22;7950;42.744;23.174;2023-06-10T08:21:57;23.80;99.90
15700;DHT22;7950;42.744;23.174;2023-06-10T08:24:26;23.80;99.90
15700;DHT22;7950;42.744;23.174;2023-06-10T08:26:54;24.00;99.90
15700;DHT22;7950;42.744;23.174;2023-06-10T08:29:23;24.20;99.90
15700;DHT22;7950;42.744;23.174;2023-06-10T08:31:55;24.30;99.90
15700;DHT22;7950;42.744;23.174;2023-06-10T08:34:23;24.40;99.90
15700;DHT22;7950;42.744;23.174;2023-06-10T08:36:52;24.60;99.90
15700;DHT22;7950;42.744;23.174;2023-06-10T08:39:22;24.80;99.90
15700;DHT22;7950;42.744;23.174;2023-06-10T08:42:00;24.90;99.90
15700;DHT22;7950;42.744;23.174;2023-06-10T08:44:38;25.00;99.90
15700;DHT22;7950;42.744;23.174;2023-06-10T08:47:13;25.10;99.90
15700;DHT22;7950;42.744;23.174;2023-06-10T08:49:45;25.20;99.90
15700;DHT22;7950;42.744;23.174;2023-06-10T08:52:15;25.20;99.90
15700;DHT22;7950;42.744;23.174;2023-06-10T08:54:49;25.30;99.90
15700;DHT22;7950;42.744;23.174;2023-06-10T08:57:22;25.40;99.90
15700;DHT22;7950;42.744;23.174;2023-06-10T08:59:52;25.30;97.20
15700;DHT22;7950;42.744;23.174;2023-06-10T09:02:24;25.10;98.10
15700;DHT22;7950;42.744;23.174;2023-06-10T09:04:53;25.10;99.90
15700;DHT22;7950;42.744;23.174;2023-06-10T09:07:24;25.10;99.80
15700;DHT22;7950;42.744;23.174;2023-06-10T09:09:55;25.30;99.90
15700;DHT22;7950;42.744;23.174;2023-06-10T09:12:24;25.30;99.90
15700;DHT22;7950;42.744;23.174;2023-06-10T09:14:53;25.40;99.90
15700;DHT22;7950;42.744;23.174;2023-06-10T09:17:23;25.50;98.60
15700;DHT22;7950;42.744;23.174;2023-06-10T09:19:52;25.60;99.90
15700;DHT22;7950;42.744;23.174;2023-06-10T09:22:22;25.70;99.90
15700;DHT22;7950;42.744;23.174;2023-06-10T09:25:02;25.80;99.00
15700;DHT22;7950;42.744;23.174;2023-06-10T09:27:32;25.90;99.90
15700;DHT22;7950;42.744;23.174;2023-06-10T09:30:00;25.90;97.40
15700;DHT22;7950;42.744;23.174;2023-06-10T09:32:30;26.10;98.40
15700;DHT22;7950;42.744;23.174;2023-06-10T09:34:59;26.20;97.40
15700;DHT22;7950;42.744;23.174;2023-06-10T09:37:28;26.20;95.70
15700;DHT22;7950;42.744;23.174;2023-06-10T09:40:03;26.20;95.20
15700;DHT22;7950;42.744;23.174;2023-06-10T09:42:34;26.30;96.50
15700;DHT22;7950;42.744;23.174;2023-06-10T09:45:05;26.30;96.30
15700;DHT22;7950;42.744;23.174;2023-06-10T09:47:36;26.40;97.00
15700;DHT22;7950;42.744;23.174;2023-06-10T09:50:05;26.60;98.10
15700;DHT22;7950;42.744;23.174;2023-06-10T09:52:37;26.70;93.10
15700;DHT22;7950;42.744;23.174;2023-06-10T09:55:08;26.60;91.50
15700;DHT22;7950;42.744;23.174;2023-06-10T09:57:38;26.40;90.90
15700;DHT22;7950;42.744;23.174;2023-06-10T10:00:10;26.20;91.20
15700;DHT22;7950;42.744;23.174;2023-06-10T10:02:48;26.30;92.60
15700;DHT22;7950;42.744;23.174;2023-06-10T10:05:20;26.30;91.80
15700;DHT22;7950;42.744;23.174;2023-06-10T10:07:51;26.40;90.90
15700;DHT22;7950;42.744;23.174;2023-06-10T10:10:21;26.50;89.70
15700;DHT22;7950;42.744;23.174;2023-06-10T10:12:53;26.50;91.60
15700;DHT22;7950;42.744;23.174;2023-06-10T10:15:25;26.40;92.10
15700;DHT22;7950;42.744;23.174;2023-06-10T10:18:03;26.30;93.30
15700;DHT22;7950;42.744;23.174;2023-06-10T10:20:41;26.30;94.80
15700;DHT22;7950;42.744;23.174;2023-06-10T10:23:16;26.40;93.70
15700;DHT22;7950;42.744;23.174;2023-06-10T10:25:52;26.50;94.00
15700;DHT22;7950;42.744;23.174;2023-06-10T10:28:24;26.70;94.00
15700;DHT22;7950;42.744;23.174;2023-06-10T10:31:05;27.10;92.50
15700;DHT22;7950;42.744;23.174;2023-06-10T10:33:48;27.40;91.20
15700;DHT22;7950;42.744;23.174;2023-06-10T10:36:23;27.70;90.20
15700;DHT22;7950;42.744;23.174;2023-06-10T10:38:53;27.90;87.00
15700;DHT22;7950;42.744;23.174;2023-06-10T10:41:23;28.00;82.50
15700;DHT22;7950;42.744;23.174;2023-06-10T10:43:53;27.70;82.60
15700;DHT22;7950;42.744;23.174;2023-06-10T10:46:22;27.40;81.40
15700;DHT22;7950;42.744;23.174;2023-06-10T10:48:53;27.20;81.20
15700;DHT22;7950;42.744;23.174;2023-06-10T10:51:24;27.20;78.20
15700;DHT22;7950;42.744;23.174;2023-06-10T10:54:12;27.30;81.10
15700;DHT22;7950;42.744;23.174;2023-06-10T10:57:14;27.40;82.30
15700;DHT22;7950;42.744;23.174;2023-06-10T10:59:58;27.60;80.70
15700;DHT22;7950;42.744;23.174;2023-06-10T11:02:42;27.90;82.20
15700;DHT22;7950;42.744;23.174;2023-06-10T11:05:16;27.90;80.50
15700;DHT22;7950;42.744;23.174;2023-06-10T11:07:52;27.50;77.90
15700;DHT22;7950;42.744;23.174;2023-06-10T11:10:29;27.30;82.60
15700;DHT22;7950;42.744;23.174;2023-06-10T11:12:59;27.20;79.10
15700;DHT22;7950;42.744;23.174;2023-06-10T11:15:29;27.10;79.60
15700;DHT22;7950;42.744;23.174;2023-06-10T11:18:12;26.90;81.10
15700;DHT22;7950;42.744;23.174;2023-06-10T11:20:51;26.70;79.90
15700;DHT22;7950;42.744;23.174;2023-06-10T11:23:39;26.30;80.60
15700;DHT22;7950;42.744;23.174;2023-06-10T11:26:19;26.00;82.40
15700;DHT22;7950;42.744;23.174;2023-06-10T11:29:08;25.90;83.50
15700;DHT22;7950;42.744;23.174;2023-06-10T11:31:45;25.60;82.80
15700;DHT22;7950;42.744;23.174;2023-06-10T11:34:23;25.50;83.90
15700;DHT22;7950;42.744;23.174;2023-06-10T11:36:55;25.40;85.10
15700;DHT22;7950;42.744;23.174;2023-06-10T11:39:24;25.30;83.10
15700;DHT22;7950;42.744;23.174;2023-06-10T11:41:54;25.20;86.10
15700;DHT22;7950;42.744;23.174;2023-06-10T11:44:28;25.20;85.60
15700;DHT22;7950;42.744;23.174;2023-06-10T11:46:59;25.20;85.80
15700;DHT22;7950;42.744;23.174;2023-06-10T11:49:27;25.30;87.20
15700;DHT22;7950;42.744;23.174;2023-06-10T11:51:57;25.40;87.90
15700;DHT22;7950;42.744;23.174;2023-06-10T11:54:26;25.50;86.30
15700;DHT22;7950;42.744;23.174;2023-06-10T11:56:58;25.60;83.30
15700;DHT22;7950;42.744;23.174;2023-06-10T11:59:27;25.80;84.80
15700;DHT22;7950;42.744;23.174;2023-06-10T12:01:56;26.00;86.30
15700;DHT22;7950;42.744;23.174;2023-06-10T12:04:25;26.10;82.30
15700;DHT22;7950;42.744;23.174;2023-06-10T12:06:54;26.10;79.80
15700;DHT22;7950;42.744;23.174;2023-06-10T12:09:25;26.10;79.00
15700;DHT22;7950;42.744;23.174;2023-06-10T12:11:57;26.20;80.10
15700;DHT22;7950;42.744;23.174;2023-06-10T12:14:55;26.30;79.90
15700;DHT22;7950;42.744;23.174;2023-06-10T12:17:37;26.60;83.50
15700;DHT22;7950;42.744;23.174;2023-06-10T12:20:07;26.80;82.90
15700;DHT22;7950;42.744;23.174;2023-06-10T12:22:51;27.00;79.70
15700;DHT22;7950;42.744;23.174;2023-06-10T12:25:26;27.10;81.10
15700;DHT22;7950;42.744;23.174;2023-06-10T12:27:56;27.00;77.00
15700;DHT22;7950;42.744;23.174;2023-06-10T12:30:27;26.70;75.00
15700;DHT22;7950;42.744;23.174;2023-06-10T12:32:56;26.40;74.40
15700;DHT22;7950;42.744;23.174;2023-06-10T12:35:26;26.10;74.90
15700;DHT22;7950;42.744;23.174;2023-06-10T12:37:56;25.80;75.80
15700;DHT22;7950;42.744;23.174;2023-06-10T12:40:30;25.60;77.20
15700;DHT22;7950;42.744;23.174;2023-06-10T12:43:00;25.50;80.20
15700;DHT22;7950;42.744;23.174;2023-06-10T12:45:30;25.50;81.40
15700;DHT22;7950;42.744;23.174;2023-06-10T12:48:07;25.40;82.50
15700;DHT22;7950;42.744;23.174;2023-06-10T12:50:37;25.30;83.10
15700;DHT22;7950;42.744;23.174;2023-06-10T12:53:08;25.10;92.50
15700;DHT22;7950;42.744;23.174;2023-06-10T12:55:39;24.50;99.90
15700;DHT22;7950;42.744;23.174;2023-06-10T12:58:08;23.90;99.90
15700;DHT22;7950;42.744;23.174;2023-06-10T13:00:36;23.30;99.90
15700;DHT22;7950;42.744;23.174;2023-06-10T13:03:05;22.90;99.90
15700;DHT22;7950;42.744;23.174;2023-06-10T13:05:34;22.70;99.90
15700;DHT22;7950;42.744;23.174;2023-06-10T13:08:06;22.30;99.90
15700;DHT22;7950;42.744;23.174;2023-06-10T13:10:38;21.90;99.90
15700;DHT22;7950;42.744;23.174;2023-06-10T13:13:07;21.50;99.90
15700;DHT22;7950;42.744;23.174;2023-06-10T13:15:37;21.10;99.90
15700;DHT22;7950;42.744;23.174;2023-06-10T13:18:10;20.80;99.90
15700;DHT22;7950;42.744;23.174;2023-06-10T13:20:39;20.50;99.90
15700;DHT22;7950;42.744;23.174;2023-06-10T13:23:08;20.30;99.90
15700;DHT22;7950;42.744;23.174;2023-06-10T13:25:38;20.10;99.90
15700;DHT22;7950;42.744;23.174;2023-06-10T13:28:07;19.90;99.90
15700;DHT22;7950;42.744;23.174;2023-06-10T13:30:36;19.80;99.90
15700;DHT22;7950;42.744;23.174;2023-06-10T13:33:05;19.70;99.90
15700;DHT22;7950;42.744;23.174;2023-06-10T13:35:33;19.50;99.90
15700;DHT22;7950;42.744;23.174;2023-06-10T13:38:02;19.50;99.90
15700;DHT22;7950;42.744;23.174;2023-06-10T13:40:30;19.40;99.90
15700;DHT22;7950;42.744;23.174;2023-06-10T13:43:00;19.40;99.90
15700;DHT22;7950;42.744;23.174;2023-06-10T13:45:29;19.50;99.90
15700;DHT22;7950;42.744;23.174;2023-06-10T13:47:58;19.50;99.90
15700;DHT22;7950;42.744;23.174;2023-06-10T13:50:26;19.60;99.90
15700;DHT22;7950;42.744;23.174;2023-06-10T13:52:55;19.50;99.90
15700;DHT22;7950;42.744;23.174;2023-06-10T13:55:24;19.50;99.90
15700;DHT22;7950;42.744;23.174;2023-06-10T13:57:52;19.60;99.90
15700;DHT22;7950;42.744;23.174;2023-06-10T14:00:22;19.60;99.90
15700;DHT22;7950;42.744;23.174;2023-06-10T14:02:52;19.60;99.90
15700;DHT22;7950;42.744;23.174;2023-06-10T14:05:20;19.70;99.90
15700;DHT22;7950;42.744;23.174;2023-06-10T14:07:49;19.80;99.90
15700;DHT22;7950;42.744;23.174;2023-06-10T14:10:17;19.80;99.90
15700;DHT22;7950;42.744;23.174;2023-06-10T14:12:46;19.90;99.90
15700;DHT22;7950;42.744;23.174;2023-06-10T14:15:14;20.00;99.90
15700;DHT22;7950;42.744;23.174;2023-06-10T14:17:44;20.20;99.90
15700;DHT22;7950;42.744;23.174;2023-06-10T14:20:13;20.20;99.90
15700;DHT22;7950;42.744;23.174;2023-06-10T14:22:42;20.30;99.90
15700;DHT22;7950;42.744;23.174;2023-06-10T14:25:10;20.40;99.90
15700;DHT22;7950;42.744;23.174;2023-06-10T14:27:39;20.60;99.90
15700;DHT22;7950;42.744;23.174;2023-06-10T14:30:09;20.80;99.90
15700;DHT22;7950;42.744;23.174;2023-06-10T14:32:38;20.90;99.90
15700;DHT22;7950;42.744;23.174;2023-06-10T14:35:08;21.00;99.90
15700;DHT22;7950;42.744;23.174;2023-06-10T14:37:37;21.10;99.90
15700;DHT22;7950;42.744;23.174;2023-06-10T14:40:07;21.20;99.90
15700;DHT22;7950;42.744;23.174;2023-06-10T14:42:36;21.30;99.90
15700;DHT22;7950;42.744;23.174;2023-06-10T14:45:06;21.40;99.90
15700;DHT22;7950;42.744;23.174;2023-06-10T14:47:37;21.50;99.90
15700;DHT22;7950;42.744;23.174;2023-06-10T14:50:08;21.60;99.90
15700;DHT22;7950;42.744;23.174;2023-06-10T14:52:37;21.70;99.90
15700;DHT22;7950;42.744;23.174;2023-06-10T14:55:06;21.80;99.90
15700;DHT22;7950;42.744;23.174;2023-06-10T14:57:35;21.90;99.90
15700;DHT22;7950;42.744;23.174;2023-06-10T15:00:05;22.00;99.90
15700;DHT22;7950;42.744;23.174;2023-06-10T15:02:35;22.10;99.90
15700;DHT22;7950;42.744;23.174;2023-06-10T15:05:04;22.30;99.90
15700;DHT22;7950;42.744;23.174;2023-06-10T15:07:35;22.60;99.90
15700;DHT22;7950;42.744;23.174;2023-06-10T15:10:04;22.70;99.90
15700;DHT22;7950;42.744;23.174;2023-06-10T15:12:33;22.90;99.90
15700;DHT22;7950;42.744;23.174;2023-06-10T15:15:03;22.90;99.90
15700;DHT22;7950;42.744;23.174;2023-06-10T15:17:32;22.80;99.90
15700;DHT22;7950;42.744;23.174;2023-06-10T15:20:01;22.70;99.90
15700;DHT22;7950;42.744;23.174;2023-06-10T15:22:30;22.80;99.90
15700;DHT22;7950;42.744;23.174;2023-06-10T15:25:04;22.90;99.90
15700;DHT22;7950;42.744;23.174;2023-06-10T15:27:53;23.00;99.90
15700;DHT22;7950;42.744;23.174;2023-06-10T15:30:22;23.20;99.90
15700;DHT22;7950;42.744;23.174;2023-06-10T15:32:51;23.00;99.90
15700;DHT22;7950;42.744;23.174;2023-06-10T15:35:19;22.90;99.90
15700;DHT22;7950;42.744;23.174;2023-06-10T15:37:49;22.80;99.90
15700;DHT22;7950;42.744;23.174;2023-06-10T15:40:18;22.70;99.90
15700;DHT22;7950;42.744;23.174;2023-06-10T15:42:47;22.80;99.90
15700;DHT22;7950;42.744;23.174;2023-06-10T15:45:16;22.90;99.90
15700;DHT22;7950;42.744;23.174;2023-06-10T15:47:45;22.90;99.90
15700;DHT22;7950;42.744;23.174;2023-06-10T15:50:13;23.10;99.90